Friday, December 14, 2018, 12:03 PM EST
Back to Local

KBML, Berlin Municipal Airport

Location: Milan, NH, United States Lat: 44.583
Local Time: 12:03 PM EST (17:03 GMT) Lon: -71.183
Time Zone: US/Eastern Elev: 1158 ft

Show me the last for .
Show Coded

Time T Td Feel RH Dir Speed Gust Alt SLP Vis Weather Sky Remarks
2018-12-14 11:52 27 18 - 68 - Calm - 30.34 30.40 10 OVC031 None
2018-12-14 10:52 25 16 - 68 - Calm - 30.37 30.44 10 OVC031 None
2018-12-14 10:31 24 16 - 70 - Calm - 30.38 - 10 OVC031 None
2018-12-14 09:52 23 14 - 67 - Calm - 30.41 30.48 10 OVC029 None
2018-12-14 08:52 20 13 - 73 - Calm - 30.42 30.49 10 OVC029 None
2018-12-14 08:26 20 12 - 70 - Calm - 30.42 - 10 OVC029 None
2018-12-14 08:15 19 12 - 73 - Calm - 30.41 - 10 OVC030 None
2018-12-14 07:52 18 11 - 73 - Calm - 30.42 30.49 10 OVC029 None
2018-12-14 06:52 17 11 12 76 130° 3 - 30.42 30.49 10 OVC026 6-hr Min Temp (7am): 10.0°F
6-hr Max Temp (7am): 19.9°F
2018-12-14 05:52 16 10 - 76 - Calm - 30.43 30.50 10 OVC027 None
2018-12-14 04:52 14 9 - 79 - Calm - 30.42 30.50 10 OVC020 None
2018-12-14 04:05 12 8 - 83 - Calm - 30.42 - 10 BKN022 None
2018-12-14 03:52 10 6 - 83 - Calm - 30.42 30.50 10 FEW024 None
2018-12-14 02:52 14 9 - 79 - Calm - 30.43 30.50 10 CLR None
2018-12-14 02:33 17 9 - 69 - Calm - 30.44 - 10 SCT021 None
2018-12-14 01:52 20 10 - 64 - Calm - 30.45 30.52 10 BKN021 OVC046 None
2018-12-14 00:52 20 8 - 59 - Calm - 30.45 30.52 10 OVC020 6-hr Min Temp (1am): 15.1°F
6-hr Max Temp (1am): 19.9°F
2018-12-13 23:52 19 10 - 67 - Calm - 30.46 30.53 10 OVC020 24-hr Min Temp (12am): -17.0°F
24-hr Max Temp (12am): 21.9°F
2018-12-13 22:52 18 10 - 70 - Calm - 30.46 30.54 10 OVC023 None
2018-12-13 21:52 17 9 - 69 - Calm - 30.47 30.55 9 OVC024 None
2018-12-13 20:52 17 8 - 67 - Calm - 30.47 30.56 10 OVC024 None
2018-12-13 19:52 16 8 - 70 - Calm - 30.47 30.57 10 OVC026 None
2018-12-13 18:52 15 7 - 69 - Calm - 30.47 30.57 10 OVC028 6-hr Min Temp (7pm): 12.9°F
6-hr Max Temp (7pm): 21.9°F
2018-12-13 18:31 14 6 - 70 - Calm - 30.47 - 10 BKN028 OVC041 None
2018-12-13 17:52 17 6 - 61 - Calm - 30.46 30.56 10 OVC038 None
2018-12-13 16:52 16 5 - 61 - Calm - 30.46 30.55 10 OVC034 None
2018-12-13 15:52 16 4 - 58 - Calm - 30.44 30.54 10 FEW033 None
2018-12-13 14:52 21 1 - 40 - Calm - 30.42 30.51 10 CLR None
2018-12-13 13:52 20 1 - 42 - Calm - 30.41 30.51 10 CLR None
2018-12-13 12:52 16 2 - 53 - Calm - 30.42 30.52 10 CLR 6-hr Min Temp (1pm): -17.0°F
6-hr Max Temp (1pm): 16.0°F

Support USWX by starting your Amazon purchase here.